createdAt,value
2023-04-15T00:01:00.392Z,1.50
2023-04-15T00:04:35.478Z,1.35
2023-04-15T00:11:53.634Z,1.40
2023-04-15T00:18:58.126Z,2.00
2023-04-15T00:22:38.620Z,1.92
2023-04-15T00:26:08.717Z,1.77
2023-04-15T00:29:36.102Z,2.17
2023-04-15T00:44:15.438Z,1.70
2023-04-15T00:47:54.097Z,2.03
2023-04-15T00:51:32.585Z,1.60
2023-04-15T00:58:53.220Z,1.20
2023-04-15T01:20:21.424Z,2.15
2023-04-15T01:27:32.495Z,2.37
2023-04-15T01:31:15.444Z,1.60
2023-04-15T01:34:51.265Z,1.53
2023-04-15T01:49:12.465Z,1.70
2023-04-15T02:03:59.878Z,1.70
2023-04-15T02:22:18.986Z,1.85
2023-04-15T02:25:53.618Z,2.50
2023-04-15T02:29:35.235Z,1.83
2023-04-15T02:32:59.446Z,2.10
2023-04-15T02:36:34.885Z,2.00
2023-04-15T02:40:27.461Z,2.65
2023-04-15T02:44:05.113Z,1.85
2023-04-15T02:47:48.524Z,2.22
2023-04-15T02:51:26.117Z,1.83
2023-04-15T02:55:06.742Z,2.12
2023-04-15T03:02:17.059Z,1.67
2023-04-15T03:05:58.310Z,1.83
2023-04-15T03:09:42.788Z,1.80
2023-04-15T03:13:21.728Z,1.85
2023-04-15T03:17:01.570Z,1.83
2023-04-15T03:20:21.318Z,1.92
2023-04-15T03:24:00.743Z,1.92
2023-04-15T03:27:39.713Z,1.95
2023-04-15T03:31:19.939Z,1.50
2023-04-15T03:34:45.071Z,1.65
2023-04-15T03:38:22.942Z,1.10
2023-04-15T03:42:00.430Z,1.37
2023-04-15T03:45:20.695Z,1.87
2023-04-15T03:49:00.968Z,1.60
2023-04-15T03:52:36.158Z,1.52
2023-04-15T03:55:56.773Z,1.58
2023-04-15T04:06:40.641Z,1.55
2023-04-15T04:10:26.623Z,1.60
2023-04-15T04:13:48.356Z,1.52
2023-04-15T04:28:26.629Z,1.55
2023-04-15T04:31:49.864Z,1.55
2023-04-15T04:35:16.541Z,1.95
2023-04-15T04:54:12.591Z,3.30
2023-04-15T05:01:17.987Z,2.37
2023-04-15T05:04:43.818Z,1.65
2023-04-15T05:08:25.099Z,2.03
2023-04-15T05:55:29.864Z,2.15
2023-04-15T05:59:21.979Z,2.40
2023-04-15T06:02:28.103Z,2.08
2023-04-15T06:05:52.738Z,2.20
2023-04-15T06:08:58.735Z,2.12
2023-04-15T06:12:42.704Z,1.98
2023-04-15T06:15:45.664Z,2.35
2023-04-15T06:19:12.699Z,2.65
2023-04-15T06:22:37.693Z,1.95
2023-04-15T06:25:44.891Z,2.12
2023-04-15T06:28:50.725Z,2.30
2023-04-15T06:31:58.964Z,2.50
2023-04-15T06:35:08.388Z,2.55
2023-04-15T06:38:56.651Z,2.28
2023-04-15T06:42:22.060Z,1.90
2023-04-15T06:45:49.110Z,1.90
2023-04-15T06:48:55.123Z,1.85
2023-04-15T06:52:27.868Z,2.05
2023-04-15T06:55:31.745Z,1.55
2023-04-15T06:59:18.182Z,1.67
2023-04-15T07:02:45.528Z,1.95
2023-04-15T07:06:09.918Z,1.95
2023-04-15T07:09:12.953Z,1.65
2023-04-15T07:12:25.647Z,1.90
2023-04-15T07:15:30.622Z,1.70
2023-04-15T07:19:16.603Z,1.58
2023-04-15T07:22:42.888Z,1.55
2023-04-15T07:26:32.805Z,1.75
2023-04-15T07:29:56.786Z,2.42
2023-04-15T07:33:21.815Z,1.77
2023-04-15T07:36:46.308Z,1.25
2023-04-15T07:40:17.867Z,1.20
2023-04-15T07:43:23.464Z,1.40
2023-04-15T07:46:29.911Z,1.17
2023-04-15T07:49:56.955Z,1.37
2023-04-15T07:53:35.783Z,1.00
2023-04-15T07:57:26.880Z,1.25
2023-04-15T08:00:35.184Z,1.25
2023-04-15T08:04:06.363Z,1.10
2023-04-15T08:07:11.658Z,0.95
2023-04-15T08:11:00.166Z,0.98
2023-04-15T08:14:05.998Z,1.30
2023-04-15T08:17:33.020Z,0.98
2023-04-15T08:21:01.366Z,1.20
2023-04-15T08:25:00.600Z,1.35
2023-04-15T08:28:07.789Z,1.20
2023-04-15T08:31:51.432Z,0.88
2023-04-15T08:39:46.861Z,0.82
2023-04-15T08:43:51.878Z,0.90
2023-04-15T08:51:11.202Z,0.52
2023-04-15T09:58:29.907Z,0.90
2023-04-15T10:24:31.564Z,0.55
2023-04-15T12:31:29.825Z,1.42
2023-04-15T12:39:48.043Z,1.50
2023-04-15T13:18:05.712Z,1.25
2023-04-15T13:58:06.464Z,1.87
2023-04-15T14:08:55.818Z,1.85
2023-04-15T14:12:25.559Z,1.90
2023-04-15T14:15:54.874Z,1.80
2023-04-15T14:19:24.089Z,1.90
2023-04-15T14:22:45.958Z,3.17
2023-04-15T14:26:20.705Z,1.98
2023-04-15T14:29:41.046Z,1.65
2023-04-15T14:33:13.172Z,1.50
2023-04-15T14:36:28.686Z,1.20
2023-04-15T14:39:50.064Z,1.37
2023-04-15T14:43:17.243Z,1.05
2023-04-15T14:46:47.539Z,1.23
2023-04-15T14:53:24.753Z,0.70
2023-04-15T15:00:15.989Z,0.90
2023-04-15T15:03:46.949Z,0.73
2023-04-15T15:07:17.935Z,1.40
2023-04-15T15:10:54.003Z,0.90
2023-04-15T15:14:29.574Z,1.40
2023-04-15T15:18:05.855Z,0.88
2023-04-15T15:21:24.940Z,1.45
2023-04-15T15:24:48.187Z,1.20
2023-04-15T15:28:28.643Z,1.20
2023-04-15T15:31:51.777Z,0.82
2023-04-15T15:35:23.561Z,1.10
2023-04-15T15:38:47.723Z,0.90
2023-04-15T15:42:25.241Z,1.20
2023-04-15T15:45:55.723Z,1.00
2023-04-15T15:49:15.262Z,1.02
2023-04-15T15:52:42.174Z,1.20
2023-04-15T15:56:20.585Z,1.00
2023-04-15T15:59:48.160Z,1.10
2023-04-15T16:03:17.206Z,1.08
2023-04-15T16:06:52.587Z,0.85
2023-04-15T16:10:29.311Z,0.90
2023-04-15T16:13:57.039Z,0.98
2023-04-15T16:17:15.159Z,1.10
2023-04-15T16:20:39.111Z,1.00
2023-04-15T16:24:11.373Z,1.42
2023-04-15T16:31:07.639Z,1.05
2023-04-15T16:38:04.146Z,0.80
2023-04-15T16:41:42.829Z,1.60
2023-04-15T16:45:07.647Z,1.70
2023-04-15T16:48:29.840Z,1.37
2023-04-15T16:51:57.842Z,1.40
2023-04-15T16:55:18.775Z,1.85
2023-04-15T16:58:35.731Z,1.70
2023-04-15T17:01:56.048Z,1.83
2023-04-15T17:05:24.372Z,2.22
2023-04-15T17:08:57.614Z,1.70
2023-04-15T17:12:17.068Z,2.33
2023-04-15T17:15:46.782Z,1.98
2023-04-15T17:19:21.165Z,2.15
2023-04-15T17:22:53.282Z,2.33
2023-04-15T17:26:18.969Z,2.47
2023-04-15T17:29:58.563Z,1.87
2023-04-15T17:33:56.099Z,1.65
2023-04-15T17:40:14.956Z,2.20
2023-04-15T17:43:32.131Z,2.30
2023-04-15T17:47:02.270Z,2.08
2023-04-15T17:50:32.441Z,2.20
2023-04-15T17:53:49.792Z,2.20
2023-04-15T17:57:06.899Z,2.78
2023-04-15T18:00:31.077Z,2.42
2023-04-15T18:04:08.118Z,2.60
2023-04-15T18:07:41.844Z,2.60
2023-04-15T18:11:21.094Z,2.90
2023-04-15T18:14:59.827Z,3.28
2023-04-15T18:18:35.987Z,2.95
2023-04-15T18:22:00.886Z,4.53
2023-04-15T18:25:35.528Z,7.97
2023-04-15T18:29:05.260Z,5.50
2023-04-15T18:32:31.994Z,5.72
2023-04-15T19:13:36.981Z,7.90
2023-04-15T19:28:00.006Z,9.48
2023-04-15T19:35:17.419Z,9.75
2023-04-15T20:04:35.836Z,8.90
2023-04-15T20:12:09.987Z,7.65
2023-04-15T20:15:16.583Z,8.18
2023-04-15T20:18:53.509Z,7.95
2023-04-15T20:22:27.338Z,9.82
2023-04-15T20:44:54.039Z,7.75
2023-04-15T20:48:24.502Z,8.98
2023-04-15T20:53:05.010Z,8.55
2023-04-15T21:00:28.128Z,7.53
2023-04-15T21:08:10.980Z,9.27
2023-04-15T21:15:40.305Z,7.97
2023-04-15T21:19:19.681Z,8.52
2023-04-15T21:22:53.854Z,9.70
2023-04-15T21:26:29.044Z,8.65
2023-04-15T21:40:59.890Z,7.35
2023-04-15T21:44:40.543Z,7.72
2023-04-15T21:48:22.676Z,7.10
2023-04-15T21:55:31.807Z,8.02
2023-04-15T22:02:48.423Z,7.57
2023-04-15T23:29:41.008Z,8.23
2023-04-15T23:47:56.530Z,7.50
2023-04-15T23:55:50.994Z,6.03
